sensor_id;sensor_type;location;lat;lon;timestamp;P1;durP1;ratioP1;P2;durP2;ratioP2
41689;SDS011;27372;42.658;23.256;2023-03-23T00:01:19;36.00;;;19.45;;
41689;SDS011;27372;42.658;23.256;2023-03-23T00:03:47;37.45;;;20.40;;
41689;SDS011;27372;42.658;23.256;2023-03-23T00:06:14;32.25;;;19.90;;
41689;SDS011;27372;42.658;23.256;2023-03-23T00:08:49;21.75;;;14.18;;
41689;SDS011;27372;42.658;23.256;2023-03-23T00:11:24;15.27;;;10.80;;
41689;SDS011;27372;42.658;23.256;2023-03-23T00:13:54;11.88;;;8.40;;
41689;SDS011;27372;42.658;23.256;2023-03-23T00:16:29;12.88;;;8.98;;
41689;SDS011;27372;42.658;23.256;2023-03-23T00:19:05;11.95;;;7.90;;
41689;SDS011;27372;42.658;23.256;2023-03-23T00:21:33;13.25;;;10.52;;
41689;SDS011;27372;42.658;23.256;2023-03-23T00:26:35;10.27;;;6.88;;
41689;SDS011;27372;42.658;23.256;2023-03-23T00:29:05;10.43;;;7.55;;
41689;SDS011;27372;42.658;23.256;2023-03-23T00:31:32;10.38;;;7.65;;
41689;SDS011;27372;42.658;23.256;2023-03-23T00:34:00;11.18;;;7.93;;
41689;SDS011;27372;42.658;23.256;2023-03-23T00:36:28;12.85;;;9.65;;
41689;SDS011;27372;42.658;23.256;2023-03-23T00:38:58;16.23;;;11.38;;
41689;SDS011;27372;42.658;23.256;2023-03-23T00:41:26;16.45;;;11.77;;
41689;SDS011;27372;42.658;23.256;2023-03-23T00:43:53;29.60;;;20.00;;
41689;SDS011;27372;42.658;23.256;2023-03-23T00:46:25;25.75;;;16.80;;
41689;SDS011;27372;42.658;23.256;2023-03-23T00:48:53;32.22;;;20.67;;
41689;SDS011;27372;42.658;23.256;2023-03-23T00:51:19;15.80;;;11.00;;
41689;SDS011;27372;42.658;23.256;2023-03-23T00:53:45;14.63;;;10.02;;
41689;SDS011;27372;42.658;23.256;2023-03-23T00:56:12;16.08;;;10.60;;
41689;SDS011;27372;42.658;23.256;2023-03-23T00:58:38;13.93;;;9.63;;
41689;SDS011;27372;42.658;23.256;2023-03-23T01:01:04;13.55;;;9.32;;
41689;SDS011;27372;42.658;23.256;2023-03-23T01:03:30;14.18;;;9.23;;
41689;SDS011;27372;42.658;23.256;2023-03-23T01:06:03;13.48;;;9.32;;
41689;SDS011;27372;42.658;23.256;2023-03-23T01:08:33;12.55;;;8.15;;
41689;SDS011;27372;42.658;23.256;2023-03-23T01:11:02;13.77;;;8.83;;
41689;SDS011;27372;42.658;23.256;2023-03-23T01:13:29;13.68;;;9.15;;
41689;SDS011;27372;42.658;23.256;2023-03-23T01:15:54;16.63;;;10.15;;
41689;SDS011;27372;42.658;23.256;2023-03-23T01:18:20;33.67;;;20.60;;
41689;SDS011;27372;42.658;23.256;2023-03-23T01:20:46;32.30;;;20.45;;
41689;SDS011;27372;42.658;23.256;2023-03-23T01:23:11;22.95;;;14.90;;
41689;SDS011;27372;42.658;23.256;2023-03-23T01:25:36;20.45;;;13.98;;
41689;SDS011;27372;42.658;23.256;2023-03-23T01:28:02;24.90;;;14.50;;
41689;SDS011;27372;42.658;23.256;2023-03-23T01:30:28;23.20;;;15.15;;
41689;SDS011;27372;42.658;23.256;2023-03-23T01:32:54;23.05;;;13.93;;
41689;SDS011;27372;42.658;23.256;2023-03-23T01:35:21;18.10;;;11.70;;
41689;SDS011;27372;42.658;23.256;2023-03-23T01:37:47;18.75;;;11.35;;
41689;SDS011;27372;42.658;23.256;2023-03-23T01:40:13;14.75;;;10.73;;
41689;SDS011;27372;42.658;23.256;2023-03-23T01:42:40;20.92;;;13.32;;
41689;SDS011;27372;42.658;23.256;2023-03-23T01:45:39;19.33;;;13.07;;
41689;SDS011;27372;42.658;23.256;2023-03-23T01:48:04;41.08;;;16.25;;
41689;SDS011;27372;42.658;23.256;2023-03-23T01:50:42;28.55;;;14.30;;
41689;SDS011;27372;42.658;23.256;2023-03-23T01:53:14;21.27;;;12.80;;
41689;SDS011;27372;42.658;23.256;2023-03-23T01:55:43;21.35;;;12.38;;
41689;SDS011;27372;42.658;23.256;2023-03-23T01:58:13;20.27;;;12.43;;
41689;SDS011;27372;42.658;23.256;2023-03-23T02:00:40;23.65;;;13.35;;
41689;SDS011;27372;42.658;23.256;2023-03-23T02:03:07;21.40;;;11.88;;
41689;SDS011;27372;42.658;23.256;2023-03-23T02:05:36;17.52;;;12.45;;
41689;SDS011;27372;42.658;23.256;2023-03-23T02:08:04;25.27;;;15.00;;
41689;SDS011;27372;42.658;23.256;2023-03-23T02:10:35;22.75;;;13.85;;
41689;SDS011;27372;42.658;23.256;2023-03-23T02:13:03;24.25;;;16.27;;
41689;SDS011;27372;42.658;23.256;2023-03-23T02:27:08;21.92;;;14.48;;
41689;SDS011;27372;42.658;23.256;2023-03-23T02:29:56;31.15;;;14.82;;
41689;SDS011;27372;42.658;23.256;2023-03-23T02:35:17;21.60;;;14.27;;
41689;SDS011;27372;42.658;23.256;2023-03-23T02:37:51;22.05;;;14.43;;
41689;SDS011;27372;42.658;23.256;2023-03-23T02:40:25;20.55;;;13.30;;
41689;SDS011;27372;42.658;23.256;2023-03-23T02:42:55;26.52;;;14.68;;
41689;SDS011;27372;42.658;23.256;2023-03-23T02:45:23;19.25;;;12.38;;
41689;SDS011;27372;42.658;23.256;2023-03-23T02:50:19;16.92;;;11.73;;
41689;SDS011;27372;42.658;23.256;2023-03-23T02:52:47;15.68;;;10.63;;
41689;SDS011;27372;42.658;23.256;2023-03-23T02:55:15;19.73;;;11.65;;
41689;SDS011;27372;42.658;23.256;2023-03-23T02:57:43;15.07;;;9.52;;
41689;SDS011;27372;42.658;23.256;2023-03-23T03:00:14;14.82;;;9.30;;
41689;SDS011;27372;42.658;23.256;2023-03-23T03:02:45;17.02;;;10.27;;
41689;SDS011;27372;42.658;23.256;2023-03-23T03:10:34;15.27;;;9.70;;
41689;SDS011;27372;42.658;23.256;2023-03-23T03:13:07;14.52;;;10.05;;
41689;SDS011;27372;42.658;23.256;2023-03-23T03:15:41;19.27;;;13.90;;
41689;SDS011;27372;42.658;23.256;2023-03-23T03:18:21;25.52;;;16.98;;
41689;SDS011;27372;42.658;23.256;2023-03-23T03:20:53;28.63;;;20.00;;
41689;SDS011;27372;42.658;23.256;2023-03-23T03:23:24;28.52;;;18.85;;
41689;SDS011;27372;42.658;23.256;2023-03-23T03:25:51;23.98;;;16.50;;
41689;SDS011;27372;42.658;23.256;2023-03-23T03:28:19;21.38;;;14.45;;
41689;SDS011;27372;42.658;23.256;2023-03-23T03:30:56;24.30;;;16.10;;
41689;SDS011;27372;42.658;23.256;2023-03-23T03:35:55;22.15;;;14.45;;
41689;SDS011;27372;42.658;23.256;2023-03-23T03:38:23;22.42;;;14.32;;
41689;SDS011;27372;42.658;23.256;2023-03-23T03:40:49;21.58;;;15.43;;
41689;SDS011;27372;42.658;23.256;2023-03-23T03:43:15;23.05;;;15.25;;
41689;SDS011;27372;42.658;23.256;2023-03-23T03:45:40;25.23;;;17.02;;
41689;SDS011;27372;42.658;23.256;2023-03-23T03:48:06;25.33;;;15.65;;
41689;SDS011;27372;42.658;23.256;2023-03-23T03:50:35;23.50;;;16.10;;
41689;SDS011;27372;42.658;23.256;2023-03-23T03:53:01;24.88;;;15.88;;
41689;SDS011;27372;42.658;23.256;2023-03-23T03:55:26;23.80;;;16.88;;
41689;SDS011;27372;42.658;23.256;2023-03-23T03:57:53;27.70;;;18.20;;
41689;SDS011;27372;42.658;23.256;2023-03-23T04:00:22;27.45;;;18.33;;
41689;SDS011;27372;42.658;23.256;2023-03-23T04:02:48;31.75;;;20.45;;
41689;SDS011;27372;42.658;23.256;2023-03-23T04:05:19;31.60;;;19.15;;
41689;SDS011;27372;42.658;23.256;2023-03-23T04:07:45;32.88;;;21.73;;
41689;SDS011;27372;42.658;23.256;2023-03-23T04:10:14;38.63;;;23.15;;
41689;SDS011;27372;42.658;23.256;2023-03-23T04:12:40;36.05;;;22.33;;
41689;SDS011;27372;42.658;23.256;2023-03-23T04:15:05;42.75;;;26.25;;
41689;SDS011;27372;42.658;23.256;2023-03-23T04:17:32;64.88;;;35.03;;
41689;SDS011;27372;42.658;23.256;2023-03-23T04:19:58;49.78;;;26.77;;
41689;SDS011;27372;42.658;23.256;2023-03-23T04:22:25;49.92;;;28.98;;
41689;SDS011;27372;42.658;23.256;2023-03-23T04:24:58;41.65;;;23.92;;
41689;SDS011;27372;42.658;23.256;2023-03-23T04:27:25;54.65;;;28.13;;
41689;SDS011;27372;42.658;23.256;2023-03-23T04:29:53;34.38;;;20.73;;
41689;SDS011;27372;42.658;23.256;2023-03-23T04:32:19;40.75;;;23.48;;
41689;SDS011;27372;42.658;23.256;2023-03-23T04:34:45;39.03;;;23.48;;
41689;SDS011;27372;42.658;23.256;2023-03-23T04:37:11;33.50;;;20.05;;
41689;SDS011;27372;42.658;23.256;2023-03-23T04:39:38;23.23;;;15.40;;
41689;SDS011;27372;42.658;23.256;2023-03-23T04:42:05;38.47;;;22.23;;
41689;SDS011;27372;42.658;23.256;2023-03-23T04:44:30;29.80;;;16.88;;
41689;SDS011;27372;42.658;23.256;2023-03-23T04:46:57;40.00;;;22.45;;
41689;SDS011;27372;42.658;23.256;2023-03-23T04:49:26;43.45;;;23.45;;
41689;SDS011;27372;42.658;23.256;2023-03-23T04:51:51;41.83;;;24.52;;
41689;SDS011;27372;42.658;23.256;2023-03-23T04:54:17;44.67;;;24.38;;
41689;SDS011;27372;42.658;23.256;2023-03-23T04:56:43;38.97;;;22.15;;
41689;SDS011;27372;42.658;23.256;2023-03-23T04:59:08;32.05;;;20.58;;
41689;SDS011;27372;42.658;23.256;2023-03-23T05:01:34;34.75;;;19.15;;
41689;SDS011;27372;42.658;23.256;2023-03-23T05:04:02;32.78;;;20.27;;
41689;SDS011;27372;42.658;23.256;2023-03-23T05:06:28;31.92;;;20.02;;
41689;SDS011;27372;42.658;23.256;2023-03-23T05:08:53;38.42;;;22.58;;
41689;SDS011;27372;42.658;23.256;2023-03-23T05:11:20;38.78;;;23.70;;
41689;SDS011;27372;42.658;23.256;2023-03-23T05:13:46;35.00;;;22.35;;
41689;SDS011;27372;42.658;23.256;2023-03-23T05:16:11;39.75;;;23.17;;
41689;SDS011;27372;42.658;23.256;2023-03-23T05:18:37;42.53;;;25.80;;
41689;SDS011;27372;42.658;23.256;2023-03-23T05:21:05;42.08;;;26.23;;
41689;SDS011;27372;42.658;23.256;2023-03-23T05:23:30;45.15;;;27.13;;
41689;SDS011;27372;42.658;23.256;2023-03-23T05:25:56;41.65;;;25.63;;
41689;SDS011;27372;42.658;23.256;2023-03-23T05:28:27;40.22;;;25.52;;
41689;SDS011;27372;42.658;23.256;2023-03-23T05:30:53;37.85;;;24.20;;
41689;SDS011;27372;42.658;23.256;2023-03-23T05:33:20;35.03;;;22.20;;
41689;SDS011;27372;42.658;23.256;2023-03-23T05:35:46;37.25;;;24.00;;
41689;SDS011;27372;42.658;23.256;2023-03-23T05:38:12;40.95;;;24.95;;
41689;SDS011;27372;42.658;23.256;2023-03-23T05:40:39;36.08;;;23.10;;
41689;SDS011;27372;42.658;23.256;2023-03-23T05:43:06;41.55;;;25.67;;
41689;SDS011;27372;42.658;23.256;2023-03-23T05:45:32;46.15;;;28.00;;
41689;SDS011;27372;42.658;23.256;2023-03-23T05:47:58;43.13;;;26.60;;
41689;SDS011;27372;42.658;23.256;2023-03-23T05:50:24;44.25;;;26.50;;
41689;SDS011;27372;42.658;23.256;2023-03-23T05:52:50;44.80;;;27.15;;
41689;SDS011;27372;42.658;23.256;2023-03-23T05:55:16;47.25;;;28.48;;
41689;SDS011;27372;42.658;23.256;2023-03-23T05:57:41;52.10;;;32.78;;
41689;SDS011;27372;42.658;23.256;2023-03-23T06:00:07;51.45;;;32.88;;
41689;SDS011;27372;42.658;23.256;2023-03-23T06:02:39;47.33;;;30.38;;
41689;SDS011;27372;42.658;23.256;2023-03-23T06:05:09;45.45;;;28.38;;
41689;SDS011;27372;42.658;23.256;2023-03-23T06:07:35;42.80;;;27.42;;
41689;SDS011;27372;42.658;23.256;2023-03-23T06:10:01;47.25;;;27.83;;
41689;SDS011;27372;42.658;23.256;2023-03-23T06:12:27;46.80;;;28.20;;
41689;SDS011;27372;42.658;23.256;2023-03-23T06:14:52;42.35;;;27.52;;
41689;SDS011;27372;42.658;23.256;2023-03-23T06:17:18;42.15;;;26.23;;
41689;SDS011;27372;42.658;23.256;2023-03-23T06:19:43;41.72;;;26.27;;
41689;SDS011;27372;42.658;23.256;2023-03-23T06:22:11;39.53;;;25.63;;
41689;SDS011;27372;42.658;23.256;2023-03-23T06:24:37;41.08;;;24.58;;
41689;SDS011;27372;42.658;23.256;2023-03-23T06:27:02;42.65;;;25.50;;
41689;SDS011;27372;42.658;23.256;2023-03-23T06:29:28;36.38;;;23.67;;
41689;SDS011;27372;42.658;23.256;2023-03-23T06:31:55;35.15;;;22.95;;
41689;SDS011;27372;42.658;23.256;2023-03-23T06:34:22;33.80;;;22.13;;
41689;SDS011;27372;42.658;23.256;2023-03-23T06:36:48;30.50;;;17.45;;
41689;SDS011;27372;42.658;23.256;2023-03-23T06:39:14;26.30;;;17.88;;
41689;SDS011;27372;42.658;23.256;2023-03-23T06:41:39;35.90;;;22.85;;
41689;SDS011;27372;42.658;23.256;2023-03-23T06:44:05;36.58;;;23.77;;
41689;SDS011;27372;42.658;23.256;2023-03-23T06:46:31;33.67;;;21.67;;
41689;SDS011;27372;42.658;23.256;2023-03-23T06:48:57;31.65;;;20.92;;
41689;SDS011;27372;42.658;23.256;2023-03-23T06:51:23;32.65;;;22.65;;
41689;SDS011;27372;42.658;23.256;2023-03-23T06:53:48;35.30;;;24.13;;
41689;SDS011;27372;42.658;23.256;2023-03-23T06:56:13;35.25;;;23.67;;
41689;SDS011;27372;42.658;23.256;2023-03-23T06:58:39;35.33;;;23.75;;
41689;SDS011;27372;42.658;23.256;2023-03-23T07:01:07;40.45;;;25.10;;
41689;SDS011;27372;42.658;23.256;2023-03-23T07:03:33;33.25;;;23.00;;
41689;SDS011;27372;42.658;23.256;2023-03-23T07:05:59;33.88;;;23.10;;
41689;SDS011;27372;42.658;23.256;2023-03-23T07:08:24;35.80;;;23.52;;
41689;SDS011;27372;42.658;23.256;2023-03-23T07:10:51;35.38;;;24.13;;
41689;SDS011;27372;42.658;23.256;2023-03-23T07:13:18;41.58;;;26.25;;
41689;SDS011;27372;42.658;23.256;2023-03-23T07:15:44;38.45;;;25.25;;
41689;SDS011;27372;42.658;23.256;2023-03-23T07:18:09;46.10;;;31.42;;
41689;SDS011;27372;42.658;23.256;2023-03-23T07:20:35;35.97;;;24.77;;
41689;SDS011;27372;42.658;23.256;2023-03-23T07:23:01;37.13;;;24.95;;
41689;SDS011;27372;42.658;23.256;2023-03-23T07:25:30;40.90;;;26.50;;
41689;SDS011;27372;42.658;23.256;2023-03-23T07:27:56;37.97;;;25.25;;
41689;SDS011;27372;42.658;23.256;2023-03-23T07:30:22;36.67;;;24.05;;
41689;SDS011;27372;42.658;23.256;2023-03-23T07:32:47;35.75;;;24.23;;
41689;SDS011;27372;42.658;23.256;2023-03-23T07:35:12;38.25;;;24.25;;
41689;SDS011;27372;42.658;23.256;2023-03-23T07:37:38;39.80;;;25.90;;
41689;SDS011;27372;42.658;23.256;2023-03-23T07:40:04;38.35;;;25.08;;
41689;SDS011;27372;42.658;23.256;2023-03-23T07:42:40;32.00;;;23.00;;
41689;SDS011;27372;42.658;23.256;2023-03-23T07:45:13;47.63;;;28.75;;
41689;SDS011;27372;42.658;23.256;2023-03-23T07:47:44;66.22;;;37.63;;
41689;SDS011;27372;42.658;23.256;2023-03-23T07:50:10;73.15;;;37.65;;
41689;SDS011;27372;42.658;23.256;2023-03-23T07:52:38;43.40;;;28.15;;
41689;SDS011;27372;42.658;23.256;2023-03-23T07:55:06;49.03;;;27.90;;
41689;SDS011;27372;42.658;23.256;2023-03-23T07:57:33;50.63;;;29.10;;
41689;SDS011;27372;42.658;23.256;2023-03-23T08:00:00;54.28;;;29.73;;
41689;SDS011;27372;42.658;23.256;2023-03-23T08:02:26;48.08;;;29.38;;
41689;SDS011;27372;42.658;23.256;2023-03-23T08:05:04;41.90;;;24.15;;
41689;SDS011;27372;42.658;23.256;2023-03-23T08:07:29;57.63;;;33.42;;
41689;SDS011;27372;42.658;23.256;2023-03-23T08:09:55;53.13;;;33.20;;
41689;SDS011;27372;42.658;23.256;2023-03-23T08:12:23;75.68;;;39.60;;
41689;SDS011;27372;42.658;23.256;2023-03-23T08:14:52;33.20;;;22.60;;
41689;SDS011;27372;42.658;23.256;2023-03-23T08:17:18;72.82;;;40.67;;
41689;SDS011;27372;42.658;23.256;2023-03-23T08:19:45;41.92;;;25.38;;
41689;SDS011;27372;42.658;23.256;2023-03-23T08:22:17;48.53;;;27.83;;
41689;SDS011;27372;42.658;23.256;2023-03-23T08:24:43;52.28;;;31.52;;
41689;SDS011;27372;42.658;23.256;2023-03-23T08:27:08;48.97;;;29.48;;
41689;SDS011;27372;42.658;23.256;2023-03-23T08:29:34;34.90;;;19.17;;
41689;SDS011;27372;42.658;23.256;2023-03-23T08:32:00;30.65;;;19.05;;
41689;SDS011;27372;42.658;23.256;2023-03-23T08:34:28;26.15;;;16.92;;
41689;SDS011;27372;42.658;23.256;2023-03-23T08:36:53;32.20;;;20.63;;
41689;SDS011;27372;42.658;23.256;2023-03-23T08:39:20;26.17;;;16.98;;
41689;SDS011;27372;42.658;23.256;2023-03-23T08:41:47;18.48;;;10.57;;
41689;SDS011;27372;42.658;23.256;2023-03-23T08:44:13;14.73;;;10.98;;
41689;SDS011;27372;42.658;23.256;2023-03-23T08:46:39;22.10;;;15.40;;
41689;SDS011;27372;42.658;23.256;2023-03-23T08:49:05;19.17;;;11.50;;
41689;SDS011;27372;42.658;23.256;2023-03-23T08:51:31;13.73;;;9.15;;
41689;SDS011;27372;42.658;23.256;2023-03-23T08:53:57;10.07;;;7.88;;
41689;SDS011;27372;42.658;23.256;2023-03-23T08:56:23;13.13;;;8.90;;
41689;SDS011;27372;42.658;23.256;2023-03-23T08:58:49;10.68;;;8.45;;
41689;SDS011;27372;42.658;23.256;2023-03-23T09:01:14;10.52;;;8.10;;
41689;SDS011;27372;42.658;23.256;2023-03-23T09:03:40;15.57;;;10.07;;
41689;SDS011;27372;42.658;23.256;2023-03-23T09:06:06;17.35;;;8.77;;
41689;SDS011;27372;42.658;23.256;2023-03-23T09:08:33;12.60;;;8.88;;
41689;SDS011;27372;42.658;23.256;2023-03-23T09:11:04;14.05;;;9.18;;
41689;SDS011;27372;42.658;23.256;2023-03-23T09:13:38;16.08;;;8.35;;
41689;SDS011;27372;42.658;23.256;2023-03-23T09:16:04;15.80;;;8.63;;
41689;SDS011;27372;42.658;23.256;2023-03-23T09:18:31;11.18;;;7.95;;
41689;SDS011;27372;42.658;23.256;2023-03-23T09:23:26;11.10;;;7.40;;
41689;SDS011;27372;42.658;23.256;2023-03-23T09:25:52;10.90;;;7.35;;
41689;SDS011;27372;42.658;23.256;2023-03-23T09:28:19;14.25;;;10.70;;
41689;SDS011;27372;42.658;23.256;2023-03-23T09:30:44;19.42;;;11.27;;
41689;SDS011;27372;42.658;23.256;2023-03-23T09:33:10;18.73;;;10.25;;
41689;SDS011;27372;42.658;23.256;2023-03-23T09:35:37;17.00;;;10.20;;
41689;SDS011;27372;42.658;23.256;2023-03-23T09:38:03;12.07;;;7.80;;
41689;SDS011;27372;42.658;23.256;2023-03-23T09:40:32;9.90;;;8.10;;
41689;SDS011;27372;42.658;23.256;2023-03-23T09:46:17;10.15;;;7.65;;
41689;SDS011;27372;42.658;23.256;2023-03-23T09:49:05;10.50;;;8.55;;
41689;SDS011;27372;42.658;23.256;2023-03-23T09:51:44;11.85;;;7.50;;
41689;SDS011;27372;42.658;23.256;2023-03-23T09:54:18;10.45;;;7.68;;
41689;SDS011;27372;42.658;23.256;2023-03-23T09:56:45;13.68;;;8.35;;
41689;SDS011;27372;42.658;23.256;2023-03-23T10:01:50;10.82;;;8.15;;
41689;SDS011;27372;42.658;23.256;2023-03-23T10:06:52;11.68;;;7.70;;
41689;SDS011;27372;42.658;23.256;2023-03-23T10:09:22;9.88;;;8.30;;
41689;SDS011;27372;42.658;23.256;2023-03-23T10:22:29;11.35;;;8.20;;
41689;SDS011;27372;42.658;23.256;2023-03-23T10:27:36;11.00;;;7.88;;
41689;SDS011;27372;42.658;23.256;2023-03-23T10:30:26;10.02;;;6.82;;
41689;SDS011;27372;42.658;23.256;2023-03-23T10:33:08;9.00;;;7.05;;
41689;SDS011;27372;42.658;23.256;2023-03-23T10:38:17;9.55;;;6.10;;
41689;SDS011;27372;42.658;23.256;2023-03-23T10:40:48;9.07;;;6.85;;
41689;SDS011;27372;42.658;23.256;2023-03-23T10:43:18;10.95;;;7.18;;
41689;SDS011;27372;42.658;23.256;2023-03-23T10:45:44;8.32;;;6.68;;
41689;SDS011;27372;42.658;23.256;2023-03-23T10:48:17;10.65;;;6.40;;
41689;SDS011;27372;42.658;23.256;2023-03-23T10:50:50;7.28;;;6.38;;
41689;SDS011;27372;42.658;23.256;2023-03-23T10:53:22;9.55;;;7.22;;
41689;SDS011;27372;42.658;23.256;2023-03-23T10:55:53;8.82;;;6.70;;
41689;SDS011;27372;42.658;23.256;2023-03-23T10:58:31;9.35;;;6.68;;
41689;SDS011;27372;42.658;23.256;2023-03-23T11:01:01;9.07;;;7.25;;
41689;SDS011;27372;42.658;23.256;2023-03-23T11:03:39;8.70;;;6.40;;
41689;SDS011;27372;42.658;23.256;2023-03-23T11:06:10;9.68;;;6.63;;
41689;SDS011;27372;42.658;23.256;2023-03-23T11:09:10;10.73;;;6.47;;
41689;SDS011;27372;42.658;23.256;2023-03-23T11:11:39;9.07;;;7.15;;
41689;SDS011;27372;42.658;23.256;2023-03-23T11:16:58;7.80;;;6.38;;
41689;SDS011;27372;42.658;23.256;2023-03-23T11:22:07;8.20;;;6.57;;
41689;SDS011;27372;42.658;23.256;2023-03-23T11:24:34;7.25;;;6.00;;
41689;SDS011;27372;42.658;23.256;2023-03-23T11:29:49;8.63;;;6.03;;
41689;SDS011;27372;42.658;23.256;2023-03-23T11:32:19;8.00;;;6.47;;
41689;SDS011;27372;42.658;23.256;2023-03-23T12:26:28;12.02;;;10.02;;
41689;SDS011;27372;42.658;23.256;2023-03-23T12:35:00;9.80;;;5.75;;
41689;SDS011;27372;42.658;23.256;2023-03-23T12:37:34;9.10;;;5.25;;
41689;SDS011;27372;42.658;23.256;2023-03-23T12:48:45;6.38;;;5.45;;
41689;SDS011;27372;42.658;23.256;2023-03-23T12:51:20;25.63;;;6.45;;
41689;SDS011;27372;42.658;23.256;2023-03-23T13:04:49;7.10;;;5.38;;
41689;SDS011;27372;42.658;23.256;2023-03-23T13:07:28;10.35;;;5.68;;
41689;SDS011;27372;42.658;23.256;2023-03-23T13:10:02;7.60;;;5.65;;
41689;SDS011;27372;42.658;23.256;2023-03-23T13:12:44;7.35;;;5.30;;
41689;SDS011;27372;42.658;23.256;2023-03-23T13:26:37;6.72;;;5.03;;
41689;SDS011;27372;42.658;23.256;2023-03-23T13:29:18;6.65;;;5.15;;
41689;SDS011;27372;42.658;23.256;2023-03-23T13:31:46;6.10;;;5.18;;
41689;SDS011;27372;42.658;23.256;2023-03-23T13:36:55;5.32;;;4.68;;
41689;SDS011;27372;42.658;23.256;2023-03-23T13:49:55;5.20;;;4.15;;
41689;SDS011;27372;42.658;23.256;2023-03-23T13:55:20;11.30;;;7.60;;
41689;SDS011;27372;42.658;23.256;2023-03-23T13:58:10;24.60;;;9.73;;
41689;SDS011;27372;42.658;23.256;2023-03-23T14:03:25;8.50;;;5.20;;
41689;SDS011;27372;42.658;23.256;2023-03-23T14:06:15;7.15;;;5.00;;
41689;SDS011;27372;42.658;23.256;2023-03-23T14:08:51;5.25;;;4.75;;
41689;SDS011;27372;42.658;23.256;2023-03-23T14:11:25;7.13;;;5.20;;
41689;SDS011;27372;42.658;23.256;2023-03-23T14:14:04;6.78;;;5.13;;
41689;SDS011;27372;42.658;23.256;2023-03-23T14:19:14;5.95;;;5.00;;
41689;SDS011;27372;42.658;23.256;2023-03-23T14:21:50;6.70;;;5.10;;
41689;SDS011;27372;42.658;23.256;2023-03-23T14:27:10;21.77;;;14.77;;
41689;SDS011;27372;42.658;23.256;2023-03-23T14:29:38;9.40;;;5.38;;
41689;SDS011;27372;42.658;23.256;2023-03-23T14:32:05;9.30;;;5.40;;
41689;SDS011;27372;42.658;23.256;2023-03-23T14:34:32;7.25;;;5.20;;
41689;SDS011;27372;42.658;23.256;2023-03-23T14:36:59;5.95;;;4.60;;
41689;SDS011;27372;42.658;23.256;2023-03-23T14:42:00;9.10;;;5.20;;
41689;SDS011;27372;42.658;23.256;2023-03-23T14:44:37;5.43;;;4.93;;
41689;SDS011;27372;42.658;23.256;2023-03-23T14:47:21;9.35;;;5.30;;
41689;SDS011;27372;42.658;23.256;2023-03-23T14:49:54;7.68;;;5.38;;
41689;SDS011;27372;42.658;23.256;2023-03-23T14:52:28;8.02;;;5.25;;
41689;SDS011;27372;42.658;23.256;2023-03-23T14:55:10;8.65;;;5.25;;
41689;SDS011;27372;42.658;23.256;2023-03-23T14:57:42;9.20;;;5.45;;
41689;SDS011;27372;42.658;23.256;2023-03-23T15:00:21;7.15;;;5.38;;
41689;SDS011;27372;42.658;23.256;2023-03-23T15:02:53;5.90;;;4.95;;
41689;SDS011;27372;42.658;23.256;2023-03-23T15:07:47;9.63;;;5.30;;
41689;SDS011;27372;42.658;23.256;2023-03-23T15:10:23;6.28;;;5.15;;
41689;SDS011;27372;42.658;23.256;2023-03-23T15:12:49;5.75;;;4.97;;
41689;SDS011;27372;42.658;23.256;2023-03-23T15:15:30;8.93;;;5.25;;
41689;SDS011;27372;42.658;23.256;2023-03-23T15:17:59;7.25;;;5.05;;
41689;SDS011;27372;42.658;23.256;2023-03-23T15:20:28;10.90;;;5.20;;
41689;SDS011;27372;42.658;23.256;2023-03-23T15:22:55;7.25;;;5.40;;
41689;SDS011;27372;42.658;23.256;2023-03-23T15:25:23;8.27;;;5.70;;
41689;SDS011;27372;42.658;23.256;2023-03-23T15:30:54;10.98;;;5.47;;
41689;SDS011;27372;42.658;23.256;2023-03-23T15:33:23;6.68;;;5.30;;
41689;SDS011;27372;42.658;23.256;2023-03-23T15:35:53;10.13;;;5.43;;
41689;SDS011;27372;42.658;23.256;2023-03-23T15:38:22;8.77;;;5.53;;
41689;SDS011;27372;42.658;23.256;2023-03-23T15:40:52;9.00;;;5.43;;
41689;SDS011;27372;42.658;23.256;2023-03-23T15:43:21;7.15;;;5.57;;
41689;SDS011;27372;42.658;23.256;2023-03-23T15:45:56;8.38;;;5.40;;
41689;SDS011;27372;42.658;23.256;2023-03-23T15:48:31;5.85;;;4.95;;
41689;SDS011;27372;42.658;23.256;2023-03-23T15:50:58;6.55;;;5.18;;
41689;SDS011;27372;42.658;23.256;2023-03-23T15:53:31;9.05;;;6.07;;
41689;SDS011;27372;42.658;23.256;2023-03-23T15:56:00;13.20;;;6.30;;
41689;SDS011;27372;42.658;23.256;2023-03-23T15:58:27;7.53;;;5.28;;
41689;SDS011;27372;42.658;23.256;2023-03-23T16:00:54;8.98;;;5.45;;
41689;SDS011;27372;42.658;23.256;2023-03-23T16:03:24;9.35;;;5.63;;
41689;SDS011;27372;42.658;23.256;2023-03-23T16:05:53;11.93;;;5.80;;
41689;SDS011;27372;42.658;23.256;2023-03-23T16:08:19;12.82;;;5.47;;
41689;SDS011;27372;42.658;23.256;2023-03-23T16:10:45;7.82;;;5.22;;
41689;SDS011;27372;42.658;23.256;2023-03-23T16:13:10;9.45;;;5.60;;
41689;SDS011;27372;42.658;23.256;2023-03-23T16:15:36;10.32;;;5.47;;
41689;SDS011;27372;42.658;23.256;2023-03-23T16:18:01;7.72;;;5.75;;
41689;SDS011;27372;42.658;23.256;2023-03-23T16:20:27;9.07;;;5.68;;
41689;SDS011;27372;42.658;23.256;2023-03-23T16:22:54;9.40;;;6.68;;
41689;SDS011;27372;42.658;23.256;2023-03-23T16:25:20;9.77;;;6.65;;
41689;SDS011;27372;42.658;23.256;2023-03-23T16:27:46;12.38;;;7.10;;
41689;SDS011;27372;42.658;23.256;2023-03-23T16:32:40;12.00;;;7.07;;
41689;SDS011;27372;42.658;23.256;2023-03-23T16:35:06;15.20;;;7.40;;
41689;SDS011;27372;42.658;23.256;2023-03-23T16:37:32;12.90;;;7.75;;
41689;SDS011;27372;42.658;23.256;2023-03-23T16:39:59;16.88;;;9.10;;
41689;SDS011;27372;42.658;23.256;2023-03-23T16:42:25;16.27;;;7.13;;
41689;SDS011;27372;42.658;23.256;2023-03-23T16:44:51;11.80;;;6.82;;
41689;SDS011;27372;42.658;23.256;2023-03-23T16:47:18;10.40;;;6.05;;
41689;SDS011;27372;42.658;23.256;2023-03-23T16:49:47;7.75;;;5.40;;
41689;SDS011;27372;42.658;23.256;2023-03-23T16:52:13;10.35;;;5.90;;
41689;SDS011;27372;42.658;23.256;2023-03-23T16:54:38;7.55;;;5.90;;
41689;SDS011;27372;42.658;23.256;2023-03-23T16:57:04;7.15;;;5.75;;
41689;SDS011;27372;42.658;23.256;2023-03-23T16:59:30;7.07;;;5.72;;
41689;SDS011;27372;42.658;23.256;2023-03-23T17:01:55;9.40;;;5.57;;
41689;SDS011;27372;42.658;23.256;2023-03-23T17:04:27;9.60;;;5.80;;
41689;SDS011;27372;42.658;23.256;2023-03-23T17:06:52;9.02;;;5.93;;
41689;SDS011;27372;42.658;23.256;2023-03-23T17:09:18;7.50;;;5.80;;
41689;SDS011;27372;42.658;23.256;2023-03-23T17:11:43;6.65;;;5.25;;
41689;SDS011;27372;42.658;23.256;2023-03-23T17:14:08;8.85;;;5.75;;
41689;SDS011;27372;42.658;23.256;2023-03-23T17:16:34;9.05;;;5.70;;
41689;SDS011;27372;42.658;23.256;2023-03-23T17:18:59;8.82;;;5.60;;
41689;SDS011;27372;42.658;23.256;2023-03-23T17:21:25;6.15;;;5.07;;
41689;SDS011;27372;42.658;23.256;2023-03-23T17:23:51;6.78;;;4.88;;
41689;SDS011;27372;42.658;23.256;2023-03-23T17:26:17;7.70;;;4.90;;
41689;SDS011;27372;42.658;23.256;2023-03-23T17:28:42;6.68;;;5.25;;
41689;SDS011;27372;42.658;23.256;2023-03-23T17:31:07;6.32;;;5.05;;
41689;SDS011;27372;42.658;23.256;2023-03-23T17:33:33;8.95;;;4.90;;